Sandy Creek, TX

5:25 AM CDT on October 23, 2014 (GMT -0500)
Hearne | Change Station
CLOSE
Current Station
Airport
Location: Hearne,
Elevation: 285 ft
Nearby Weather Stations

Elev 285 ft 30.87 °N, 96.62 °W | Updated 10 minutes ago

Mostly Cloudy
Mostly Cloudy
64 °F
Feels Like 64 °F
N
5
Wind Variable Wind from East

Today
High -- | Low -- °F
--% Chance of Precip.
Yesterday
High -- | Low -- °F
Precip. -- in
7:35 AM 6:47 PM
Waning Crescent, 0% visible
Pressure 30.10 in
Visibility 10.0 miles
Clouds Clear
Dew Point 57 °F
Humidity 78%
Rainfall 0.00 in
Snow Depth Not available.
UV 0 out of 12
Pollen 6.20 out of 12
Air Quality Not available.
Flu Activity Not available.
METAR KLHB 231015Z AUTO 08004KT 10SM CLR 18/14 A3010 RMK AO2 T01790140

More Conditions Fewer Conditions

Pressure 30.10 in
Visibility 10.0 miles
Clouds Clear
Dew Point 57 °F
Humidity 78%
Rainfall 0.00 in
Snow Depth Not available.
UV 0 out of 12
Pollen 6.20 out of 12
Air Quality Not available.
Flu Activity Not available.
METAR KLHB 231015Z AUTO 08004KT 10SM CLR 18/14 A3010 RMK AO2 T01790140

More Conditions Fewer Conditions

Nowcast | as of 3:12 am CDT on October 23, 2014

An area of light rain extending along the Interstate 35 corridor is moving east around 20 mph. Additional areas of light rain can be expected across the rest of the region early this morning as an upper level disturbance moves overhead. Rainfall totals from a trace to a few hundredths of an inch can be expected with this activity through 6 am.

×

10-Day Weather Forecast

Almanac

Astronomy

Oct. 23, 2014 Rise Set
Actual Time 7:35 AM CDT 6:47 PM CDT
Civil Twilight 7:10 AM CDT 7:11 PM CDT
Nautical Twilight 6:42 AM CDT 7:40 PM CDT
Astronomical Twilight 6:14 AM CDT 8:08 PM CDT
Moon 7:17 AM CDT 6:49 PM CDT
Length of Visible Light 12h 01m
Length of Day
11h 12m
Tomorrow will be 1m 44s shorter.
Waning Crescent, 0% of the Moon is Illuminated
Today
Waning Crescent
Oct 23
New
Oct 30
First Quarter
Nov 6
Full
Nov 14
Last Quarter

Today's Extremes

State Highs State Lows

Community

WunderPhotos

Upload Photos

1,764,202 photos uploaded!

Nearby

Snow Depth

Station Depth Elevation
No new snow has been reported.

Earthquake Activity

City Distance Mag. Time & Date
No recent earthquake activity has been reported nearby.
Minimum magnitude displayed is 2.5.

Coastal Water Temperatures

Place Temperature
No Stations Reporting

Nearby Weather Stations